Terminal Aerodrome Forecast
Issued by NWS Louisville, KY

Home | Current Version | Previous Version | Text Only | Print | Product List | Glossary On
Versions: 1 2 3 4 5 6 7 8 9 10 11 12 13 14 15 16 17 18
103
FTUS43 KLMK 211121
TAFBWG
TAF
KBWG 211121Z 2112/2212 19004KT P6SM BKN150
     FM211400 19010G16KT P6SM SCT030 BKN150
     FM220000 14004KT P6SM VCSH SCT025 BKN100
     FM220600 12007KT 6SM -SHRA BKN015=

USA.gov is the U.S. government's official web portal to all federal, state and local government web resources and services.